Weather observations for the past three days for
Great Falls, Great Falls International Airport
Imperial (Metric)
Date Time (mdt) Wind (mph) Vis. (mi.) Weather Sky Cond. Temperature (ºF) Relative Humidity Wind Chill (°F) Heat Index (°F) Pressure Precipitation (in)
Air Dwpt 6 hour altimeter (in) sea level (mb) 1 hr 3 hr 6 hr
Max. Min.
03 07:53 SW 9 10.00 Overcast OVC100 57 39.9 53% 29.81 1008.1
03 06:53 S 14 10.00 Fair CLR 57 37 47% 29.8 1007.3
03 05:53 S 10 10.00 Fair CLR 55 37.9 57 51.1 53% 29.78 1006.9
03 04:53 S 10 10.00 Fair CLR 54 39 57% 29.78 1007.5
03 03:53 S 13 10.00 Fair CLR 55 37.9 53% 29.77 1006.7
03 02:53 S 12 10.00 Fair CLR 54 37.9 55% 29.76 1004.8
03 01:53 S 13 10.00 A Few Clouds FEW090 55.9 37 49% 29.76 1005.0
03 00:53 S 9 10.00 Fair CLR 53.1 37.9 57% 29.77 1005.4
02 23:53 S 9 10.00 Fair CLR 54 37 66 48.9 53% 29.77 1006.0
02 22:53 SW 9 10.00 Fair CLR 52 37.9 59% 29.79 1006.7
02 21:53 SW 12 10.00 Fair CLR 57.9 37 46% 29.8 1006.8
02 20:53 SW 15 10.00 Fair CLR 61 35.1 38% 29.79 1006.8
02 19:53 SW 21 10.00 Fair and Breezy CLR 61 37 41% 29.78 1006.5
02 18:53 SW 21 G 32 10.00 Fair and Breezy CLR 64.9 37.9 37% 29.78 1006.6
02 17:53 SW 23 G 33 10.00 Fair and Breezy CLR 64 39.9 86 57.9 41% 29.77 1006.0
02 16:53 W 22 G 33 10.00 Mostly Cloudy and Breezy FEW070 SCT090 BKN110 59 42.1 54% 29.74 1005.4
02 15:53 SW 48 G 69 9.00 A Few Clouds and Windy FEW018 FEW100 FEW120 64.9 39 39% 29.75 1005.5
02 14:53 S 18 G 29 10.00 Fair CLR 84 39.9 21% 81 29.66 1000.5
02 13:53 S 18 G 31 10.00 Fair CLR 82 45 27% 80 29.68 1001.5
02 12:53 E 5 10.00 Fair CLR 80.1 46 30% 79 29.71 1002.5
02 11:53 Vrbl 3 10.00 Fair CLR 75.9 45 77 57.9 33% 77 29.74 1003.7
02 10:53 S 12 10.00 Fair CLR 73.9 45 36% 29.75 1004.1
02 09:53 S 10 10.00 Fair CLR 72 48 43% 29.76 1004.8
02 08:53 SW 8 10.00 Fair CLR 66 46.9 50% 29.77 1005.3
02 07:53 S 7 10.00 Fair CLR 63 48 58% 29.78 1005.5
02 06:53 SW 9 10.00 Fair CLR 59 46.9 64% 29.79 1005.7
02 05:53 SW 7 10.00 Fair CLR 61 45 66.9 57.9 56% 29.8 1005.6
02 04:53 W 9 10.00 Partly Cloudy FEW100 SCT120 61 46.9 60% 29.8 1005.6
02 03:53 N 8 10.00 Fair CLR 61 45 56% 29.79 1005.2
02 02:53 SW 16 10.00 Fair CLR 66 45 47% 29.82 1006.3
02 01:53 SW 15 G 24 10.00 Fair CLR 64.9 44.1 47% 29.82 1006.5
02 00:53 SW 10 10.00 Fair CLR 64.9 43 45% 29.8 1005.9
01 23:53 SW 15 10.00 Fair CLR 66 42.1 84 64.9 42% 29.8 1006.2
01 22:53 SE 8 10.00 Fair CLR 66.9 42.1 41% 29.8 1006.2
01 21:53 SE 5 10.00 Fair CLR 66.9 41 39% 29.79 1006.3
01 20:53 SE 7 10.00 Fair CLR 70 41 35% 29.79 1006.4
01 19:53 E 8 10.00 Fair CLR 75 41 29% 77 29.79 1006.5
01 18:53 E 12 10.00 Fair CLR 80.1 41 25% 79 29.79 1006.5
01 17:53 NE 8 10.00 Fair CLR 84 41 86 73.9 22% 81 29.79 1006.4
01 16:53 Calm 10.00 Fair CLR 86 39.9 20% 83 29.8 1006.1
01 15:53 Vrbl 6 10.00 Fair CLR 86 41 20% 83 29.82 1007.0
01 14:53 NE 8 10.00 Fair CLR 82.9 41 23% 81 29.85 1007.9
01 13:53 NE 8 10.00 Fair CLR 79 42.1 27% 78 29.86 1008.9
01 12:53 SE 9 10.00 Fair CLR 79 41 26% 78 29.88 1009.1
01 11:53 E 6 10.00 Fair CLR 73.9 43 73.9 46 33% 29.9 1010.2
01 10:53 S 5 10.00 Fair CLR 71.1 39.9 32% 29.91 1010.4
01 09:53 SW 5 10.00 Fair CLR 66 41 40% 29.92 1011.2
01 08:53 NW 3 10.00 Fair CLR 59 42.1 54% 29.93 1011.8
01 07:53 Calm 9.00 Fair CLR 52 43 72% 29.93 1011.8
01 06:53 SW 6 10.00 Fair CLR 48 39.9 74% 46 29.92 1011.4
01 05:53 W 5 10.00 Fair CLR 48 39 60.1 46 71% 47 29.92 1011.3
01 04:53 SW 7 10.00 Fair CLR 51.1 39 64% 29.92 1011.2
01 03:53 SW 6 10.00 Fair CLR 51.1 39.9 66% 29.93 1011.7
01 02:53 SW 6 10.00 Fair CLR 52 39.9 64% 29.94 1011.9
01 01:53 SW 5 10.00 Fair CLR 53.1 39 59% 29.94 1012.2
01 00:53 SE 6 10.00 Fair CLR 57.9 39.9 51% 29.94 1011.9
31 23:53 E 8 10.00 Fair CLR 57 41 78.1 57 55% 29.95 1012.3
31 22:53 E 10 10.00 Fair CLR 62.1 39.9 44% 29.95 1012.2
31 21:53 E 9 10.00 Fair CLR 63 39.9 43% 29.96 1012.6
31 20:53 E 12 10.00 Fair CLR 64.9 39 39% 29.95 1012.5
31 19:53 E 9 10.00 Fair CLR 70 37.9 31% 29.94 1012.2
31 18:53 E 6 10.00 Fair CLR 75 37 25% 77 29.95 1012.8
31 17:53 S 6 10.00 Fair CLR 77 34 78.1 66.9 21% 77 29.96 1012.8
31 16:53 S 9 10.00 Fair CLR 77 34 21% 77 29.97 1012.9
31 15:53 S 6 10.00 Fair CLR 75 34 22% 76 29.98 1013.4
31 14:53 Calm 10.00 Fair CLR 73 35.1 25% 30 1014.2
31 13:53 Vrbl 6 10.00 Fair CLR 71.1 36 28% 30.02 1014.9
31 12:53 W 7 G 17 10.00 Fair CLR 69.1 36 30% 30.04 1015.6
31 11:53 Vrbl 3 10.00 Fair CLR 68 36 68 43 31% 30.06 1016.7
31 10:53 SW 6 10.00 Fair CLR 66 37 34% 30.07 1016.6
31 09:53 SW 10 10.00 Fair CLR 63 36 37% 30.06 1016.7
31 08:53 SW 10 10.00 Fair CLR 59 37 44% 30.06 1017.1
Date Time (mdt) Wind (mph) Vis. (mi.) Weather Sky Cond. Air Dwpt Max. Min. Relative Humidity Wind Chill (°F) Heat Index (°F) altimeter (in) sea level (mb) 1 hr 3 hr 6 hr
6 hour
Temperature (ºF) Pressure Precipitation (in)